createdAt,value
2023-03-28T00:02:17.910Z,3.80
2023-03-28T00:05:03.706Z,4.30
2023-03-28T00:07:47.398Z,4.57
2023-03-28T00:10:34.402Z,4.40
2023-03-28T00:13:18.163Z,3.70
2023-03-28T00:16:07.548Z,4.07
2023-03-28T00:18:48.018Z,4.13
2023-03-28T00:21:35.980Z,4.28
2023-03-28T00:24:21.180Z,4.68
2023-03-28T00:27:01.995Z,3.67
2023-03-28T00:29:51.146Z,4.35
2023-03-28T00:35:26.060Z,3.92
2023-03-28T00:38:03.926Z,4.47
2023-03-28T00:40:48.822Z,4.70
2023-03-28T00:43:49.487Z,4.40
2023-03-28T00:46:37.228Z,4.50
2023-03-28T00:49:28.695Z,4.55
2023-03-28T00:52:11.398Z,3.97
2023-03-28T00:54:55.646Z,4.90
2023-03-28T00:57:37.156Z,4.55
2023-03-28T01:00:23.967Z,4.32
2023-03-28T01:05:43.018Z,4.70
2023-03-28T01:08:29.673Z,4.85
2023-03-28T01:13:56.814Z,4.82
2023-03-28T01:16:42.240Z,4.90
2023-03-28T01:19:30.357Z,4.28
2023-03-28T01:22:29.300Z,4.47
2023-03-28T01:25:29.214Z,4.65
2023-03-28T01:28:13.899Z,4.80
2023-03-28T01:31:33.622Z,4.65
2023-03-28T01:35:17.380Z,4.88
2023-03-28T01:38:13.648Z,5.15
2023-03-28T01:41:05.933Z,4.38
2023-03-28T01:44:16.648Z,4.68
2023-03-28T01:47:01.477Z,4.20
2023-03-28T01:49:58.511Z,4.65
2023-03-28T01:52:44.211Z,4.90
2023-03-28T01:56:00.610Z,4.72
2023-03-28T01:59:20.952Z,4.55
2023-03-28T02:02:30.574Z,5.05
2023-03-28T02:05:29.554Z,4.85
2023-03-28T02:08:14.783Z,4.57
2023-03-28T02:11:07.819Z,4.30
2023-03-28T02:14:12.103Z,4.30
2023-03-28T02:16:58.839Z,4.68
2023-03-28T02:19:51.739Z,4.50
2023-03-28T02:22:54.384Z,5.05
2023-03-28T02:25:49.385Z,4.45
2023-03-28T02:28:51.899Z,4.53
2023-03-28T02:31:48.113Z,5.47
2023-03-28T02:34:32.506Z,5.78
2023-03-28T02:37:29.993Z,4.75
2023-03-28T02:40:32.718Z,5.53
2023-03-28T02:43:44.942Z,5.15
2023-03-28T02:46:56.284Z,5.15
2023-03-28T02:49:54.331Z,4.80
2023-03-28T02:52:37.083Z,5.47
2023-03-28T02:55:45.687Z,4.40
2023-03-28T02:59:25.914Z,4.75
2023-03-28T03:02:08.932Z,5.70
2023-03-28T03:04:51.390Z,5.75
2023-03-28T03:07:31.174Z,5.78
2023-03-28T03:10:22.838Z,5.53
2023-03-28T03:13:03.467Z,5.55
2023-03-28T03:15:52.287Z,4.72
2023-03-28T03:18:37.170Z,5.03
2023-03-28T03:21:18.978Z,5.90
2023-03-28T03:24:06.333Z,5.93
2023-03-28T03:26:52.279Z,5.40
2023-03-28T03:29:38.302Z,4.30
2023-03-28T03:32:33.851Z,5.97
2023-03-28T03:35:24.399Z,6.38
2023-03-28T03:38:04.591Z,6.10
2023-03-28T03:40:42.216Z,5.55
2023-03-28T03:43:24.037Z,6.85
2023-03-28T03:46:03.223Z,6.13
2023-03-28T03:48:50.080Z,6.00
2023-03-28T03:51:34.152Z,6.80
2023-03-28T03:54:20.891Z,6.53
2023-03-28T03:57:03.549Z,6.43
2023-03-28T03:59:44.866Z,7.18
2023-03-28T04:02:27.002Z,7.90
2023-03-28T04:05:13.632Z,7.78
2023-03-28T04:08:15.555Z,7.43
2023-03-28T04:11:00.355Z,7.75
2023-03-28T04:13:50.179Z,9.15
2023-03-28T04:16:40.274Z,8.85
2023-03-28T04:19:19.950Z,9.77
2023-03-28T04:22:13.148Z,10.27
2023-03-28T04:25:10.021Z,11.00
2023-03-28T04:27:56.281Z,8.80
2023-03-28T04:30:38.935Z,9.45
2023-03-28T04:33:27.908Z,10.02
2023-03-28T04:36:06.172Z,9.15
2023-03-28T04:38:54.565Z,9.52
2023-03-28T04:41:57.764Z,9.80
2023-03-28T04:45:00.130Z,10.82
2023-03-28T04:47:48.475Z,10.82
2023-03-28T04:50:39.339Z,10.38
2023-03-28T04:53:26.818Z,9.98
2023-03-28T04:56:26.871Z,10.95
2023-03-28T04:59:05.935Z,10.88
2023-03-28T05:01:53.609Z,12.27
2023-03-28T05:04:54.364Z,11.10
2023-03-28T05:07:40.957Z,21.35
2023-03-28T05:10:21.845Z,10.13
2023-03-28T05:13:05.082Z,12.27
2023-03-28T05:15:57.323Z,9.27
2023-03-28T05:19:19.794Z,10.10
2023-03-28T05:22:14.815Z,9.98
2023-03-28T05:24:54.099Z,9.82
2023-03-28T05:27:46.580Z,10.57
2023-03-28T05:30:31.915Z,9.50
2023-03-28T05:33:22.822Z,9.40
2023-03-28T05:36:02.101Z,9.40
2023-03-28T05:38:48.469Z,8.60
2023-03-28T05:41:32.993Z,9.18
2023-03-28T05:44:18.964Z,7.85
2023-03-28T05:47:31.100Z,8.27
2023-03-28T05:50:12.828Z,8.75
2023-03-28T05:52:54.295Z,7.45
2023-03-28T05:55:40.694Z,8.18
2023-03-28T05:58:21.624Z,7.35
2023-03-28T06:01:06.657Z,7.93
2023-03-28T06:03:53.188Z,7.57
2023-03-28T06:06:37.562Z,6.90
2023-03-28T06:09:23.705Z,7.20
2023-03-28T06:12:10.630Z,6.30
2023-03-28T06:14:56.822Z,7.18
2023-03-28T06:17:44.947Z,7.00
2023-03-28T06:20:32.848Z,7.80
2023-03-28T06:23:19.091Z,7.13
2023-03-28T06:26:10.874Z,7.22
2023-03-28T06:28:57.896Z,6.70
2023-03-28T06:31:50.131Z,6.70
2023-03-28T06:34:44.610Z,7.00
2023-03-28T06:37:28.945Z,7.05
2023-03-28T06:40:17.874Z,6.72
2023-03-28T06:42:58.089Z,6.72
2023-03-28T06:45:51.900Z,5.88
2023-03-28T06:48:33.609Z,6.30
2023-03-28T06:51:47.348Z,6.05
2023-03-28T06:54:26.158Z,6.68
2023-03-28T06:57:10.516Z,5.88
2023-03-28T07:00:11.140Z,5.65
2023-03-28T07:03:17.610Z,6.28
2023-03-28T07:06:03.581Z,6.05
2023-03-28T07:08:46.846Z,6.88
2023-03-28T07:11:30.231Z,6.80
2023-03-28T07:14:11.472Z,6.18
2023-03-28T07:16:46.886Z,6.93
2023-03-28T07:19:36.877Z,6.00
2023-03-28T07:22:15.812Z,6.30
2023-03-28T07:24:51.902Z,7.32
2023-03-28T07:27:33.849Z,6.32
2023-03-28T07:30:17.798Z,6.47
2023-03-28T07:33:17.447Z,7.03
2023-03-28T07:36:08.680Z,6.55
2023-03-28T07:38:50.008Z,7.10
2023-03-28T07:41:35.847Z,6.32
2023-03-28T07:44:22.275Z,7.07
2023-03-28T07:47:09.801Z,7.30
2023-03-28T07:49:52.070Z,8.68
2023-03-28T07:52:34.885Z,6.75
2023-03-28T07:55:24.105Z,7.90
2023-03-28T07:58:09.694Z,6.55
2023-03-28T08:00:54.818Z,7.38
2023-03-28T08:03:59.764Z,7.18
2023-03-28T08:07:02.865Z,6.53
2023-03-28T08:10:05.393Z,4.80
2023-03-28T08:12:55.819Z,5.70
2023-03-28T08:15:36.633Z,6.13
2023-03-28T08:18:18.634Z,5.88
2023-03-28T08:21:04.728Z,5.88
2023-03-28T08:23:47.826Z,5.47
2023-03-28T08:26:34.590Z,5.05
2023-03-28T08:29:21.647Z,4.47
2023-03-28T08:32:18.793Z,5.28
2023-03-28T08:34:59.848Z,4.70
2023-03-28T08:37:42.888Z,4.63
2023-03-28T08:40:23.072Z,4.93
2023-03-28T08:43:19.925Z,4.05
2023-03-28T08:46:20.143Z,4.28
2023-03-28T08:49:13.840Z,4.50
2023-03-28T08:54:50.605Z,4.85
2023-03-28T08:57:40.804Z,6.03
2023-03-28T09:00:56.315Z,4.97
2023-03-28T09:03:35.483Z,4.53
2023-03-28T09:06:32.213Z,4.47
2023-03-28T09:09:34.371Z,4.18
2023-03-28T09:12:47.933Z,4.25
2023-03-28T09:16:45.900Z,4.03
2023-03-28T09:19:48.776Z,4.32
2023-03-28T09:23:01.786Z,4.60
2023-03-28T09:26:25.636Z,4.40
2023-03-28T09:29:29.779Z,4.85
2023-03-28T09:32:16.095Z,3.88
2023-03-28T09:35:19.443Z,3.50
2023-03-28T09:38:05.808Z,3.22
2023-03-28T09:40:47.811Z,3.40
2023-03-28T09:47:28.226Z,3.25
2023-03-28T09:50:25.338Z,3.15
2023-03-28T09:53:22.175Z,3.17
2023-03-28T09:56:12.417Z,3.40
2023-03-28T09:59:07.427Z,2.80
2023-03-28T10:02:03.266Z,3.15
2023-03-28T10:04:52.248Z,2.80
2023-03-28T10:08:06.703Z,3.10
2023-03-28T10:11:07.683Z,3.08
2023-03-28T10:14:00.138Z,3.17
2023-03-28T10:16:42.637Z,2.90
2023-03-28T10:19:43.259Z,3.25
2023-03-28T10:22:33.954Z,3.25
2023-03-28T10:25:20.759Z,3.10
2023-03-28T10:28:08.246Z,2.90
2023-03-28T10:30:47.503Z,2.35
2023-03-28T10:33:57.610Z,2.13
2023-03-28T10:37:00.384Z,2.60
2023-03-28T10:40:05.826Z,2.35
2023-03-28T10:43:17.108Z,2.58
2023-03-28T10:46:17.321Z,2.45
2023-03-28T10:50:00.585Z,2.50
2023-03-28T10:53:15.183Z,2.60
2023-03-28T10:56:12.515Z,2.85
2023-03-28T10:59:47.040Z,3.08
2023-03-28T11:02:40.861Z,2.17
2023-03-28T11:06:05.661Z,2.35
2023-03-28T11:08:52.746Z,1.90
2023-03-28T11:11:44.795Z,2.72
2023-03-28T11:15:13.643Z,2.47
2023-03-28T11:18:23.170Z,2.58
2023-03-28T11:21:32.513Z,2.80
2023-03-28T11:24:50.562Z,2.58
2023-03-28T11:27:58.976Z,2.42
2023-03-28T11:30:52.081Z,2.60
2023-03-28T11:33:55.384Z,2.53
2023-03-28T11:36:44.828Z,2.70
2023-03-28T11:39:56.227Z,2.38
2023-03-28T11:43:00.777Z,3.28
2023-03-28T11:46:06.033Z,3.30
2023-03-28T11:49:01.310Z,2.28
2023-03-28T11:52:01.284Z,2.63
2023-03-28T11:55:06.373Z,2.40
2023-03-28T11:58:00.949Z,2.10
2023-03-28T12:00:51.211Z,1.70
2023-03-28T12:03:42.784Z,2.10
2023-03-28T12:06:32.821Z,1.70
2023-03-28T12:09:17.291Z,3.60
2023-03-28T12:11:58.431Z,2.30
2023-03-28T12:14:52.257Z,2.13
2023-03-28T12:18:14.234Z,2.35
2023-03-28T12:20:56.230Z,2.10
2023-03-28T12:24:12.933Z,2.13
2023-03-28T12:27:25.758Z,2.90
2023-03-28T12:30:25.777Z,2.38
2023-03-28T12:33:19.565Z,2.03
2023-03-28T12:36:34.279Z,2.28
2023-03-28T12:39:35.011Z,2.65
2023-03-28T12:42:23.328Z,2.80
2023-03-28T12:45:20.258Z,2.22
2023-03-28T12:48:03.635Z,2.55
2023-03-28T12:51:02.713Z,2.17
2023-03-28T12:53:54.724Z,2.20
2023-03-28T12:56:42.115Z,2.20
2023-03-28T12:59:45.499Z,2.17
2023-03-28T13:02:50.754Z,2.30
2023-03-28T13:05:51.824Z,2.28
2023-03-28T13:09:18.078Z,2.72
2023-03-28T13:12:22.700Z,1.73
2023-03-28T13:15:27.171Z,1.88
2023-03-28T13:21:07.384Z,1.83
2023-03-28T13:23:54.407Z,2.08
2023-03-28T13:26:56.364Z,2.17
2023-03-28T13:30:05.157Z,1.65
2023-03-28T13:32:54.957Z,2.25
2023-03-28T13:35:57.570Z,2.03
2023-03-28T13:38:50.857Z,2.45
2023-03-28T13:42:10.693Z,2.20
2023-03-28T13:45:02.252Z,2.38
2023-03-28T13:47:44.658Z,2.42
2023-03-28T13:50:34.015Z,2.90
2023-03-28T13:53:17.949Z,3.03
2023-03-28T13:56:35.434Z,2.95
2023-03-28T13:59:37.892Z,3.78
2023-03-28T14:02:36.578Z,4.00
2023-03-28T14:05:31.799Z,4.32
2023-03-28T14:08:26.918Z,2.80
2023-03-28T14:11:07.769Z,2.35
2023-03-28T14:13:52.148Z,3.80
2023-03-28T14:16:30.858Z,2.80
2023-03-28T14:19:14.263Z,3.60
2023-03-28T14:22:03.343Z,2.92
2023-03-28T14:24:58.587Z,3.70
2023-03-28T14:27:56.226Z,3.85
2023-03-28T14:30:44.102Z,3.45
2023-03-28T14:33:33.522Z,4.22
2023-03-28T14:36:21.055Z,3.83
2023-03-28T14:39:31.789Z,3.13
2023-03-28T14:42:12.787Z,3.47
2023-03-28T14:45:02.751Z,3.85
2023-03-28T14:47:48.809Z,3.45
2023-03-28T14:50:40.154Z,3.38
2023-03-28T14:53:34.253Z,4.53
2023-03-28T14:56:31.810Z,2.85
2023-03-28T14:59:10.051Z,3.38
2023-03-28T15:01:58.899Z,3.15
2023-03-28T15:04:38.521Z,3.75
2023-03-28T15:07:41.536Z,2.90
2023-03-28T15:10:32.661Z,3.78
2023-03-28T15:13:23.466Z,3.40
2023-03-28T15:16:08.065Z,2.70
2023-03-28T15:19:11.197Z,3.20
2023-03-28T15:21:54.557Z,2.75
2023-03-28T15:24:38.813Z,3.10
2023-03-28T15:27:46.885Z,2.95
2023-03-28T15:30:28.793Z,3.30
2023-03-28T15:33:19.137Z,2.78
2023-03-28T15:36:26.961Z,2.75
2023-03-28T15:39:33.791Z,2.83
2023-03-28T15:42:29.543Z,3.42
2023-03-28T15:45:32.218Z,3.70
2023-03-28T15:48:19.909Z,3.30
2023-03-28T15:51:14.626Z,3.35
2023-03-28T15:53:58.955Z,3.40
2023-03-28T15:56:35.700Z,3.42
2023-03-28T15:59:31.595Z,4.05
2023-03-28T16:02:38.972Z,4.18
2023-03-28T16:05:40.944Z,4.13
2023-03-28T16:08:31.249Z,3.67
2023-03-28T16:11:06.432Z,3.85
2023-03-28T16:13:57.183Z,4.32
2023-03-28T16:16:58.528Z,4.53
2023-03-28T16:19:48.908Z,3.97
2023-03-28T16:22:27.822Z,3.50
2023-03-28T16:25:11.649Z,3.55
2023-03-28T16:28:07.156Z,3.13
2023-03-28T16:30:48.796Z,3.60
2023-03-28T16:33:37.238Z,4.13
2023-03-28T16:36:17.292Z,6.10
2023-03-28T16:38:56.404Z,5.50
2023-03-28T16:41:43.780Z,3.78
2023-03-28T16:44:27.496Z,4.00
2023-03-28T16:47:26.125Z,3.92
2023-03-28T16:50:04.169Z,3.13
2023-03-28T16:52:48.100Z,4.30
2023-03-28T16:55:24.969Z,3.60
2023-03-28T16:58:01.165Z,3.95
2023-03-28T17:00:49.845Z,4.20
2023-03-28T17:03:38.599Z,4.93
2023-03-28T17:06:18.536Z,3.75
2023-03-28T17:09:02.111Z,4.53
2023-03-28T17:11:42.912Z,4.38
2023-03-28T17:14:25.575Z,5.15
2023-03-28T17:17:15.014Z,4.25
2023-03-28T17:20:01.410Z,3.42
2023-03-28T17:22:48.099Z,3.95
2023-03-28T17:25:30.950Z,3.90
2023-03-28T17:28:16.264Z,3.63
2023-03-28T17:31:10.668Z,3.40
2023-03-28T17:33:59.997Z,3.42
2023-03-28T17:36:43.280Z,4.20
2023-03-28T17:39:30.042Z,3.85
2023-03-28T17:42:05.792Z,3.40
2023-03-28T17:44:54.561Z,3.30
2023-03-28T17:47:33.102Z,3.35
2023-03-28T17:50:16.415Z,3.42
2023-03-28T17:52:57.538Z,2.80
2023-03-28T17:55:36.004Z,3.53
2023-03-28T17:58:22.974Z,3.45
2023-03-28T18:01:05.404Z,3.28
2023-03-28T18:03:46.327Z,3.55
2023-03-28T18:06:47.951Z,3.95
2023-03-28T18:09:28.250Z,3.42
2023-03-28T18:12:07.120Z,3.70
2023-03-28T18:14:51.098Z,3.50
2023-03-28T18:17:43.919Z,3.60
2023-03-28T18:20:24.925Z,4.22
2023-03-28T18:23:08.240Z,4.40
2023-03-28T18:26:00.172Z,5.15
2023-03-28T18:28:52.739Z,5.55
2023-03-28T18:31:36.475Z,5.35
2023-03-28T18:34:30.113Z,6.18
2023-03-28T18:37:12.064Z,5.97
2023-03-28T18:39:52.424Z,4.88
2023-03-28T18:42:35.776Z,4.50
2023-03-28T18:45:15.052Z,4.70
2023-03-28T18:48:04.249Z,5.03
2023-03-28T18:50:46.958Z,4.28
2023-03-28T18:53:32.259Z,4.28
2023-03-28T18:56:19.824Z,4.70
2023-03-28T18:59:04.249Z,5.60
2023-03-28T19:01:51.580Z,6.80
2023-03-28T19:04:32.655Z,7.55
2023-03-28T19:07:13.517Z,6.53
2023-03-28T19:09:59.784Z,5.80
2023-03-28T19:12:43.534Z,5.63
2023-03-28T19:15:18.693Z,5.88
2023-03-28T19:18:05.703Z,6.80
2023-03-28T19:20:51.194Z,6.78
2023-03-28T19:23:44.174Z,6.05
2023-03-28T19:26:18.775Z,6.82
2023-03-28T19:28:56.029Z,7.30
2023-03-28T19:31:34.242Z,6.28
2023-03-28T19:34:30.252Z,4.85
2023-03-28T19:37:17.609Z,4.72
2023-03-28T19:40:00.431Z,6.80
2023-03-28T19:42:38.751Z,5.35
2023-03-28T19:45:25.299Z,4.88
2023-03-28T19:48:06.250Z,5.97
2023-03-28T19:50:50.736Z,5.18
2023-03-28T19:53:33.981Z,5.55
2023-03-28T19:56:17.131Z,4.68
2023-03-28T19:59:00.702Z,5.55
2023-03-28T20:01:39.039Z,4.60
2023-03-28T20:04:27.738Z,5.78
2023-03-28T20:07:08.527Z,5.25
2023-03-28T20:09:53.044Z,10.75
2023-03-28T20:12:44.772Z,12.02
2023-03-28T20:15:34.423Z,5.63
2023-03-28T20:18:15.803Z,4.22
2023-03-28T20:21:02.273Z,16.83
2023-03-28T20:23:43.793Z,7.63
2023-03-28T20:26:30.839Z,4.15
2023-03-28T20:29:19.461Z,4.35
2023-03-28T20:32:01.733Z,6.07
2023-03-28T20:34:45.544Z,4.28
2023-03-28T20:40:13.775Z,4.25
2023-03-28T20:42:57.370Z,4.18
2023-03-28T20:45:46.180Z,5.05
2023-03-28T20:48:34.597Z,9.48
2023-03-28T20:51:23.475Z,5.47
2023-03-28T20:54:06.585Z,7.90
2023-03-28T20:56:47.462Z,14.05
2023-03-28T20:59:28.679Z,12.18
2023-03-28T21:02:14.604Z,13.63
2023-03-28T21:04:52.228Z,7.25
2023-03-28T21:07:42.991Z,4.85
2023-03-28T21:10:35.581Z,5.05
2023-03-28T21:13:13.071Z,5.07
2023-03-28T21:15:54.122Z,4.25
2023-03-28T21:18:34.982Z,3.97
2023-03-28T21:21:29.682Z,5.18
2023-03-28T21:24:12.514Z,5.53
2023-03-28T21:26:50.337Z,6.60
2023-03-28T21:29:30.695Z,5.38
2023-03-28T21:32:17.803Z,6.82
2023-03-28T21:34:58.728Z,10.50
2023-03-28T21:37:40.054Z,6.63
2023-03-28T21:40:26.821Z,10.15
2023-03-28T21:43:26.338Z,6.45
2023-03-28T21:46:08.404Z,11.65
2023-03-28T21:48:53.895Z,7.72
2023-03-28T21:51:41.220Z,4.07
2023-03-28T21:54:16.714Z,4.88
2023-03-28T21:57:02.664Z,5.45
2023-03-28T22:02:24.993Z,4.32
2023-03-28T22:05:18.526Z,3.55
2023-03-28T22:08:09.664Z,4.70
2023-03-28T22:11:02.353Z,4.63
2023-03-28T22:13:43.422Z,4.50
2023-03-28T22:16:32.602Z,4.20
2023-03-28T22:19:23.685Z,4.22
2023-03-28T22:22:03.989Z,4.70
2023-03-28T22:24:47.374Z,4.22
2023-03-28T22:27:32.045Z,5.50
2023-03-28T22:30:19.171Z,5.53
2023-03-28T22:33:02.569Z,5.45
2023-03-28T22:35:46.292Z,4.78
2023-03-28T22:38:36.560Z,4.75
2023-03-28T22:41:11.337Z,4.82
2023-03-28T22:44:00.126Z,4.22
2023-03-28T22:46:43.945Z,4.50
2023-03-28T22:49:27.680Z,4.63
2023-03-28T22:52:13.737Z,4.50
2023-03-28T22:55:03.065Z,4.32
2023-03-28T22:57:54.318Z,4.78
2023-03-28T23:00:35.082Z,4.28
2023-03-28T23:05:55.370Z,3.65
2023-03-28T23:08:38.349Z,4.28
2023-03-28T23:11:16.662Z,4.28
2023-03-28T23:13:57.665Z,4.50
2023-03-28T23:16:47.129Z,5.28
2023-03-28T23:19:27.184Z,4.78
2023-03-28T23:22:07.370Z,5.32
2023-03-28T23:24:49.906Z,4.03
2023-03-28T23:27:32.963Z,4.40
2023-03-28T23:30:20.763Z,4.38
2023-03-28T23:33:04.524Z,4.00
2023-03-28T23:35:48.405Z,4.38
2023-03-28T23:38:29.017Z,4.53
2023-03-28T23:43:50.765Z,4.63
2023-03-28T23:46:31.980Z,5.05
2023-03-28T23:49:16.059Z,4.50
2023-03-28T23:51:59.913Z,4.90
2023-03-28T23:54:40.705Z,5.03
2023-03-28T23:57:25.063Z,5.43
